createdAt,value
2019-02-19T00:00:52.776Z,25.57
2019-02-19T00:03:20.620Z,32.13
2019-02-19T00:05:48.368Z,25.83
2019-02-19T00:08:15.728Z,27.33
2019-02-19T00:10:43.190Z,22.00
2019-02-19T00:13:11.150Z,16.80
2019-02-19T00:15:39.222Z,20.17
2019-02-19T00:18:06.584Z,12.70
2019-02-19T00:20:34.332Z,18.20
2019-02-19T00:23:02.116Z,15.80
2019-02-19T00:25:29.530Z,12.60
2019-02-19T00:27:57.391Z,12.80
2019-02-19T00:30:25.454Z,12.20
2019-02-19T00:32:54.397Z,11.00
2019-02-19T00:35:21.747Z,9.97
2019-02-19T00:37:49.129Z,10.77
2019-02-19T00:40:16.887Z,9.85
2019-02-19T00:42:44.382Z,8.97
2019-02-19T00:45:16.707Z,7.53
2019-02-19T00:47:41.371Z,6.60
2019-02-19T00:50:09.479Z,7.10
2019-02-19T00:52:36.978Z,7.63
2019-02-19T00:55:04.423Z,8.93
2019-02-19T00:57:31.799Z,6.63
2019-02-19T00:59:59.682Z,8.97
2019-02-19T01:02:27.226Z,8.30
2019-02-19T01:04:54.999Z,8.60
2019-02-19T01:07:22.537Z,8.97
2019-02-19T01:09:50.006Z,9.20
2019-02-19T01:12:18.253Z,9.23
2019-02-19T01:14:45.932Z,9.03
2019-02-19T01:17:13.432Z,8.23
2019-02-19T01:19:40.922Z,10.90
2019-02-19T01:22:08.403Z,8.97
2019-02-19T01:24:35.867Z,5.93
2019-02-19T01:27:03.702Z,8.30
2019-02-19T01:29:31.320Z,10.17
2019-02-19T01:31:58.954Z,7.03
2019-02-19T01:34:45.801Z,7.03
2019-02-19T01:37:13.185Z,5.53
2019-02-19T01:39:41.526Z,5.87
2019-02-19T01:42:09.502Z,6.47
2019-02-19T01:44:37.270Z,5.37
2019-02-19T01:47:04.711Z,6.17
2019-02-19T01:49:32.239Z,6.10
2019-02-19T01:52:00.047Z,5.30
2019-02-19T01:54:27.458Z,5.80
2019-02-19T01:56:54.776Z,4.93
2019-02-19T01:59:22.707Z,8.33
2019-02-19T02:01:50.233Z,12.57
2019-02-19T02:04:18.258Z,15.13
2019-02-19T02:06:45.869Z,8.87
2019-02-19T02:09:13.429Z,8.63
2019-02-19T02:11:40.792Z,8.77
2019-02-19T02:14:08.189Z,6.83
2019-02-19T02:16:35.696Z,5.73
2019-02-19T02:19:03.237Z,11.00
2019-02-19T02:21:31.152Z,5.67
2019-02-19T02:23:58.689Z,6.80
2019-02-19T02:26:26.584Z,8.50
2019-02-19T02:28:54.981Z,6.83
2019-02-19T02:31:22.457Z,7.03
2019-02-19T02:33:49.941Z,9.03
2019-02-19T02:36:17.375Z,9.10
2019-02-19T02:38:45.018Z,10.90
2019-02-19T02:41:12.953Z,11.30
2019-02-19T02:43:40.344Z,6.27
2019-02-19T02:46:08.087Z,9.00
2019-02-19T02:48:35.421Z,6.83
2019-02-19T02:51:02.773Z,9.90
2019-02-19T02:53:30.150Z,9.40
2019-02-19T02:55:58.192Z,7.00
2019-02-19T02:58:26.110Z,6.37
2019-02-19T03:00:53.454Z,7.30
2019-02-19T03:03:21.188Z,5.30
2019-02-19T03:06:16.174Z,7.50
2019-02-19T03:08:43.568Z,6.45
2019-02-19T03:11:11.021Z,5.13
2019-02-19T03:13:38.936Z,4.95
2019-02-19T03:16:06.432Z,6.70
2019-02-19T03:18:34.099Z,9.73
2019-02-19T03:21:01.476Z,9.60
2019-02-19T03:23:28.973Z,7.43
2019-02-19T03:25:56.856Z,9.93
2019-02-19T03:28:24.683Z,5.53
2019-02-19T03:30:52.540Z,5.83
2019-02-19T03:33:20.105Z,6.20
2019-02-19T03:35:47.640Z,7.83
2019-02-19T03:38:15.045Z,7.80
2019-02-19T03:40:42.720Z,7.07
2019-02-19T03:43:10.368Z,8.73
2019-02-19T03:45:38.519Z,6.07
2019-02-19T03:48:05.995Z,6.70
2019-02-19T03:50:33.454Z,6.53
2019-02-19T03:53:00.822Z,5.87
2019-02-19T03:55:28.264Z,9.93
2019-02-19T03:57:56.089Z,7.10
2019-02-19T04:00:23.469Z,4.43
2019-02-19T04:02:51.244Z,5.93
2019-02-19T04:05:18.740Z,7.87
2019-02-19T04:07:46.546Z,8.73
2019-02-19T04:10:14.075Z,7.50
2019-02-19T04:12:42.154Z,13.43
2019-02-19T04:15:09.636Z,6.20
2019-02-19T04:17:37.110Z,8.03
2019-02-19T04:20:04.900Z,4.07
2019-02-19T04:22:32.681Z,5.30
2019-02-19T04:25:00.296Z,7.60
2019-02-19T04:27:27.988Z,5.60
2019-02-19T04:29:55.443Z,6.20
2019-02-19T04:32:22.969Z,10.50
2019-02-19T04:34:50.956Z,8.37
2019-02-19T04:37:18.469Z,8.87
2019-02-19T04:39:45.897Z,4.97
2019-02-19T04:42:14.058Z,9.40
2019-02-19T04:44:41.468Z,7.80
2019-02-19T04:47:08.930Z,5.63
2019-02-19T04:49:36.774Z,7.43
2019-02-19T04:52:04.412Z,8.67
2019-02-19T04:54:32.237Z,7.40
2019-02-19T04:57:00.025Z,6.77
2019-02-19T04:59:27.657Z,6.00
2019-02-19T05:01:55.141Z,11.03
2019-02-19T05:04:23.618Z,8.90
2019-02-19T05:06:51.150Z,11.87
2019-02-19T05:09:19.210Z,9.23
2019-02-19T05:11:46.536Z,6.67
2019-02-19T05:14:13.915Z,8.97
2019-02-19T05:16:41.417Z,17.03
2019-02-19T05:19:09.425Z,10.10
2019-02-19T05:21:37.630Z,5.13
2019-02-19T05:24:05.260Z,6.03
2019-02-19T05:26:32.773Z,6.17
2019-02-19T05:29:00.490Z,5.30
2019-02-19T05:31:28.270Z,5.53
2019-02-19T05:33:56.747Z,10.70
2019-02-19T05:36:24.149Z,7.37
2019-02-19T05:38:51.513Z,6.97
2019-02-19T05:41:19.186Z,8.57
2019-02-19T05:43:46.624Z,5.17
2019-02-19T05:46:14.094Z,8.70
2019-02-19T05:48:41.428Z,5.90
2019-02-19T05:51:09.169Z,5.90
2019-02-19T05:53:36.671Z,7.17
2019-02-19T05:56:04.148Z,4.73
2019-02-19T05:58:31.767Z,5.43
2019-02-19T06:00:59.577Z,7.40
2019-02-19T06:03:27.104Z,6.37
2019-02-19T06:05:54.521Z,6.60
2019-02-19T06:08:21.996Z,5.83
2019-02-19T06:10:49.494Z,6.70
2019-02-19T06:13:16.986Z,6.17
2019-02-19T06:15:45.145Z,8.43
2019-02-19T06:18:12.802Z,18.23
2019-02-19T06:20:40.164Z,7.30
2019-02-19T06:23:07.514Z,8.47
2019-02-19T06:25:35.976Z,9.47
2019-02-19T06:28:03.311Z,7.83
2019-02-19T06:30:30.982Z,13.90
2019-02-19T06:32:58.656Z,9.30
2019-02-19T06:35:26.066Z,11.57
2019-02-19T06:37:53.530Z,10.80
2019-02-19T06:40:23.674Z,12.73
2019-02-19T06:42:51.018Z,7.57
2019-02-19T06:45:19.033Z,5.27
2019-02-19T06:47:46.552Z,7.93
2019-02-19T06:50:14.041Z,8.57
2019-02-19T06:52:41.461Z,6.70
2019-02-19T06:55:09.467Z,5.83
2019-02-19T06:57:37.367Z,6.60
2019-02-19T07:00:05.729Z,5.80
2019-02-19T07:02:42.419Z,9.70
2019-02-19T07:05:21.464Z,4.70
2019-02-19T07:07:49.170Z,6.60
2019-02-19T07:10:17.134Z,6.47
2019-02-19T07:12:44.899Z,8.20
2019-02-19T07:15:12.384Z,7.67
2019-02-19T07:17:40.129Z,5.47
2019-02-19T07:20:07.659Z,4.80
2019-02-19T07:22:36.275Z,5.80
2019-02-19T07:25:04.007Z,11.20
2019-02-19T07:27:31.873Z,5.27
2019-02-19T07:29:59.683Z,5.43
2019-02-19T07:32:27.187Z,11.90
2019-02-19T07:34:54.711Z,6.63
2019-02-19T07:37:22.554Z,12.67
2019-02-19T07:39:50.103Z,8.07
2019-02-19T07:42:17.991Z,5.00
2019-02-19T07:44:45.346Z,9.73
2019-02-19T07:47:13.250Z,4.80
2019-02-19T07:49:41.051Z,6.50
2019-02-19T07:52:08.572Z,6.33
2019-02-19T07:54:35.903Z,7.60
2019-02-19T07:57:03.632Z,6.40
2019-02-19T07:59:31.697Z,7.50
2019-02-19T08:01:59.298Z,7.30
2019-02-19T08:04:27.427Z,7.87
2019-02-19T08:06:55.324Z,7.27
2019-02-19T08:09:22.810Z,5.33
2019-02-19T08:11:50.195Z,8.13
2019-02-19T08:14:17.680Z,6.93
2019-02-19T08:16:45.445Z,17.43
2019-02-19T08:19:12.799Z,8.83
2019-02-19T08:21:40.279Z,12.07
2019-02-19T08:24:07.759Z,9.17
2019-02-19T08:26:35.260Z,12.50
2019-02-19T08:29:13.076Z,6.43
2019-02-19T08:31:32.130Z,6.60
2019-02-19T08:33:59.685Z,10.30
2019-02-19T08:36:27.168Z,5.43
2019-02-19T08:38:54.633Z,6.13
2019-02-19T08:41:22.157Z,8.53
2019-02-19T08:43:49.595Z,12.37
2019-02-19T08:46:17.118Z,10.30
2019-02-19T08:48:44.603Z,8.43
2019-02-19T08:51:12.136Z,7.40
2019-02-19T08:53:39.999Z,9.70
2019-02-19T08:56:07.757Z,8.90
2019-02-19T08:58:35.344Z,8.27
2019-02-19T09:01:02.798Z,6.67
2019-02-19T09:03:31.735Z,9.20
2019-02-19T09:05:59.892Z,10.00
2019-02-19T09:08:27.764Z,12.90
2019-02-19T09:10:55.080Z,7.87
2019-02-19T09:13:22.935Z,6.67
2019-02-19T09:15:50.541Z,13.20
2019-02-19T09:18:18.216Z,9.00
2019-02-19T09:20:45.964Z,14.60
2019-02-19T09:23:13.888Z,8.27
2019-02-19T09:25:41.499Z,7.77
2019-02-19T09:28:09.824Z,7.10
2019-02-19T09:30:37.364Z,12.50
2019-02-19T09:33:04.885Z,8.60
2019-02-19T09:35:32.569Z,7.77
2019-02-19T09:37:59.940Z,10.20
2019-02-19T09:40:27.643Z,13.97
2019-02-19T09:42:55.153Z,14.97
2019-02-19T09:45:22.474Z,10.40
2019-02-19T09:47:50.149Z,11.27
2019-02-19T09:50:18.242Z,8.63
2019-02-19T09:52:46.105Z,10.53
2019-02-19T09:55:13.460Z,13.60
2019-02-19T09:57:40.867Z,14.10
2019-02-19T10:00:09.600Z,9.33
2019-02-19T10:02:37.345Z,9.23
2019-02-19T10:05:05.691Z,12.30
2019-02-19T10:07:33.159Z,13.57
2019-02-19T10:10:00.918Z,11.13
2019-02-19T10:12:28.524Z,15.53
2019-02-19T10:14:55.846Z,10.73
2019-02-19T10:17:23.228Z,13.33
2019-02-19T10:19:50.734Z,10.20
2019-02-19T10:22:18.230Z,9.73
2019-02-19T10:24:45.621Z,10.90
2019-02-19T10:27:13.149Z,18.20
2019-02-19T10:29:40.662Z,7.10
2019-02-19T10:32:08.208Z,9.23
2019-02-19T10:34:35.958Z,12.13
2019-02-19T10:37:03.292Z,16.03
2019-02-19T10:39:31.043Z,13.90
2019-02-19T10:41:58.698Z,8.70
2019-02-19T10:44:26.770Z,10.07
2019-02-19T10:46:54.104Z,12.63
2019-02-19T10:49:21.708Z,15.40
2019-02-19T10:51:49.627Z,9.60
2019-02-19T10:54:17.075Z,11.83
2019-02-19T10:56:44.886Z,10.90
2019-02-19T10:59:13.043Z,17.43
2019-02-19T11:01:40.378Z,12.57
2019-02-19T11:04:07.872Z,11.00
2019-02-19T11:06:35.634Z,12.83
2019-02-19T11:09:04.714Z,13.13
2019-02-19T11:11:34.039Z,11.93
2019-02-19T11:14:01.420Z,12.13
2019-02-19T11:16:28.861Z,12.17
2019-02-19T11:18:56.239Z,12.57
2019-02-19T11:21:23.637Z,10.90
2019-02-19T11:23:51.302Z,11.07
2019-02-19T11:26:18.646Z,12.17
2019-02-19T11:28:46.470Z,14.53
2019-02-19T11:31:13.946Z,16.60
2019-02-19T11:33:41.425Z,16.30
2019-02-19T11:36:08.772Z,8.00
2019-02-19T11:38:37.497Z,13.17
2019-02-19T11:41:04.809Z,16.50
2019-02-19T11:43:33.202Z,23.93
2019-02-19T11:46:00.719Z,14.17
2019-02-19T11:48:36.632Z,19.63
2019-02-19T11:50:58.291Z,14.40
2019-02-19T11:53:25.606Z,12.50
2019-02-19T11:55:53.006Z,11.20
2019-02-19T11:58:20.554Z,16.20
2019-02-19T12:00:48.073Z,17.60
2019-02-19T12:03:15.469Z,12.90
2019-02-19T12:05:43.259Z,13.70
2019-02-19T12:08:10.641Z,13.87
2019-02-19T12:10:38.125Z,13.57
2019-02-19T12:13:05.744Z,16.03
2019-02-19T12:15:35.375Z,11.60
2019-02-19T12:18:02.962Z,12.80
2019-02-19T12:20:30.615Z,13.53
2019-02-19T12:22:58.277Z,15.10
2019-02-19T12:25:25.845Z,15.40
2019-02-19T12:27:53.339Z,17.60
2019-02-19T12:30:21.203Z,17.83
2019-02-19T12:32:48.786Z,15.07
2019-02-19T12:35:16.892Z,13.77
2019-02-19T12:37:44.271Z,15.43
2019-02-19T12:40:11.795Z,14.43
2019-02-19T12:42:39.737Z,15.40
2019-02-19T12:45:08.770Z,12.80
2019-02-19T12:47:36.611Z,20.10
2019-02-19T12:50:04.679Z,18.53
2019-02-19T12:52:32.318Z,21.33
2019-02-19T12:55:00.280Z,16.77
2019-02-19T12:57:27.772Z,15.83
2019-02-19T12:59:56.752Z,15.73
2019-02-19T13:02:24.480Z,19.90
2019-02-19T13:04:52.013Z,20.43
2019-02-19T13:07:19.687Z,15.23
2019-02-19T13:09:47.423Z,16.33
2019-02-19T13:12:14.809Z,23.90
2019-02-19T13:14:42.740Z,15.07
2019-02-19T13:17:11.222Z,19.40
2019-02-19T13:19:39.816Z,16.30
2019-02-19T13:22:07.385Z,18.13
2019-02-19T13:24:34.908Z,18.93
2019-02-19T13:27:02.683Z,18.37
2019-02-19T13:29:30.171Z,13.73
2019-02-19T13:31:57.936Z,21.63
2019-02-19T13:34:25.332Z,19.93
2019-02-19T13:36:53.141Z,18.47
2019-02-19T13:39:20.580Z,16.17
2019-02-19T13:41:48.122Z,16.47
2019-02-19T13:44:15.789Z,22.23
2019-02-19T13:46:44.176Z,21.70
2019-02-19T13:49:12.592Z,17.30
2019-02-19T13:51:40.167Z,17.97
2019-02-19T13:54:12.048Z,18.23
2019-02-19T13:56:39.754Z,15.50
2019-02-19T13:59:07.120Z,15.40
2019-02-19T14:01:35.162Z,20.90
2019-02-19T14:04:02.509Z,18.20
2019-02-19T14:06:30.035Z,21.80
2019-02-19T14:08:57.418Z,18.20
2019-02-19T14:11:24.831Z,20.23
2019-02-19T14:14:20.738Z,17.27
2019-02-19T14:16:55.008Z,17.43
2019-02-19T14:19:40.870Z,19.33
2019-02-19T14:22:31.169Z,22.30
2019-02-19T14:25:16.846Z,19.00
2019-02-19T14:28:02.550Z,25.80
2019-02-19T14:30:52.581Z,20.60
2019-02-19T14:33:38.524Z,25.67
2019-02-19T14:36:17.554Z,19.30
2019-02-19T14:39:23.657Z,19.97
2019-02-19T14:42:08.085Z,29.83
2019-02-19T14:45:10.194Z,22.90
2019-02-19T14:47:46.175Z,22.10
2019-02-19T14:50:32.044Z,21.80
2019-02-19T14:53:37.031Z,35.80
2019-02-19T14:56:24.061Z,34.20
2019-02-19T14:59:09.539Z,30.30
2019-02-19T15:01:56.310Z,29.80
2019-02-19T15:04:58.747Z,32.27
2019-02-19T15:07:34.461Z,36.13
2019-02-19T15:10:12.843Z,43.90
2019-02-19T15:13:06.405Z,35.87
2019-02-19T15:15:47.094Z,36.73
2019-02-19T15:18:32.727Z,34.70
2019-02-19T15:21:37.627Z,42.87
2019-02-19T15:24:33.346Z,40.60
2019-02-19T15:27:23.233Z,32.90
2019-02-19T15:30:07.126Z,34.97
2019-02-19T15:32:54.153Z,31.90
2019-02-19T15:35:41.489Z,34.53
2019-02-19T15:38:31.402Z,32.43
2019-02-19T15:41:18.651Z,28.37
2019-02-19T15:44:11.120Z,32.17
2019-02-19T15:46:45.973Z,31.37
2019-02-19T15:49:47.311Z,33.53
2019-02-19T15:52:24.831Z,33.83
2019-02-19T15:55:10.074Z,35.70
2019-02-19T15:57:46.101Z,30.20
2019-02-19T16:00:32.822Z,31.70
2019-02-19T16:03:06.201Z,42.70
2019-02-19T16:05:49.657Z,45.20
2019-02-19T16:08:36.637Z,33.23
2019-02-19T16:11:22.985Z,39.63
2019-02-19T16:14:16.711Z,33.03
2019-02-19T16:17:19.665Z,51.17
2019-02-19T16:20:12.849Z,43.13
2019-02-19T16:22:58.229Z,44.70
2019-02-19T16:25:45.531Z,45.77
2019-02-19T16:28:42.053Z,43.73
2019-02-19T16:31:23.249Z,38.97
2019-02-19T16:34:16.133Z,43.83
2019-02-19T16:36:49.182Z,49.10
2019-02-19T16:39:29.115Z,31.27
2019-02-19T16:42:05.151Z,38.40
2019-02-19T16:44:41.139Z,33.37
2019-02-19T16:47:36.919Z,36.37
2019-02-19T16:50:33.574Z,35.27
2019-02-19T16:53:23.838Z,37.27
2019-02-19T16:56:16.160Z,33.30
2019-02-19T16:58:51.586Z,35.93
2019-02-19T17:01:44.587Z,35.17
2019-02-19T17:04:27.569Z,34.87
2019-02-19T17:07:03.933Z,32.53
2019-02-19T17:09:56.285Z,35.70
2019-02-19T17:12:49.208Z,26.07
2019-02-19T17:15:39.350Z,30.07
2019-02-19T17:18:25.180Z,25.23
2019-02-19T17:21:07.450Z,23.27
2019-02-19T17:23:43.894Z,35.07
2019-02-19T17:26:22.328Z,42.67
2019-02-19T17:28:58.797Z,37.60
2019-02-19T17:31:35.405Z,25.13
2019-02-19T17:34:31.535Z,30.00
2019-02-19T17:37:30.924Z,30.40
2019-02-19T17:40:18.437Z,44.00
2019-02-19T17:43:08.494Z,43.83
2019-02-19T17:45:58.211Z,32.90
2019-02-19T17:48:40.252Z,27.67
2019-02-19T17:51:29.862Z,25.37
2019-02-19T17:54:20.059Z,28.07
2019-02-19T17:57:16.339Z,23.50
2019-02-19T18:00:08.048Z,30.63
2019-02-19T18:02:55.839Z,28.80
2019-02-19T18:05:45.193Z,26.60
2019-02-19T18:08:31.232Z,23.80
2019-02-19T18:11:12.969Z,26.37
2019-02-19T18:13:46.372Z,26.63
2019-02-19T18:16:33.413Z,23.03
2019-02-19T18:19:01.681Z,26.97
2019-02-19T18:21:29.479Z,28.10
2019-02-19T18:23:57.186Z,22.37
2019-02-19T18:26:24.800Z,29.03
2019-02-19T18:28:52.653Z,29.70
2019-02-19T18:31:20.219Z,24.20
2019-02-19T18:33:47.732Z,24.30
2019-02-19T18:36:15.581Z,29.87
2019-02-19T18:38:43.598Z,27.93
2019-02-19T18:41:11.138Z,21.63
2019-02-19T18:43:38.877Z,23.37
2019-02-19T18:46:06.596Z,23.43
2019-02-19T18:48:34.536Z,19.63
2019-02-19T18:51:02.053Z,19.50
2019-02-19T18:53:29.919Z,16.70
2019-02-19T18:55:57.976Z,23.40
2019-02-19T18:58:25.632Z,22.50
2019-02-19T19:00:53.385Z,23.03
2019-02-19T19:03:20.794Z,19.80
2019-02-19T19:05:48.341Z,20.20
2019-02-19T19:08:16.261Z,21.47
2019-02-19T19:10:56.308Z,20.17
2019-02-19T19:13:24.235Z,16.00
2019-02-19T19:15:51.947Z,19.77
2019-02-19T19:18:19.703Z,16.10
2019-02-19T19:20:47.984Z,29.70
2019-02-19T19:23:15.964Z,25.90
2019-02-19T19:25:43.299Z,26.27
2019-02-19T19:28:10.636Z,24.97
2019-02-19T19:30:38.029Z,24.57
2019-02-19T19:33:06.094Z,26.87
2019-02-19T19:35:33.739Z,23.30
2019-02-19T19:38:01.600Z,17.63
2019-02-19T19:40:29.345Z,19.80
2019-02-19T19:42:57.680Z,32.00
2019-02-19T19:45:24.998Z,37.80
2019-02-19T19:47:52.767Z,39.60
2019-02-19T19:50:20.630Z,44.73
2019-02-19T19:52:48.470Z,34.47
2019-02-19T19:55:16.087Z,24.67
2019-02-19T19:57:43.855Z,25.70
2019-02-19T20:00:11.688Z,19.60
2019-02-19T20:02:39.840Z,15.10
2019-02-19T20:05:07.320Z,17.93
2019-02-19T20:07:35.799Z,34.03
2019-02-19T20:10:03.262Z,28.60
2019-02-19T20:12:32.046Z,32.87
2019-02-19T20:14:59.432Z,30.63
2019-02-19T20:17:27.046Z,36.13
2019-02-19T20:19:54.773Z,31.40
2019-02-19T20:22:22.199Z,32.27
2019-02-19T20:24:49.516Z,24.70
2019-02-19T20:27:17.266Z,14.00
2019-02-19T20:29:44.777Z,24.57
2019-02-19T20:32:12.713Z,26.47
2019-02-19T20:34:40.055Z,22.13
2019-02-19T20:37:07.552Z,19.60
2019-02-19T20:39:35.617Z,15.93
2019-02-19T20:42:03.107Z,17.03
2019-02-19T20:44:30.871Z,13.83
2019-02-19T20:46:58.694Z,10.57
2019-02-19T20:49:26.134Z,11.50
2019-02-19T20:51:53.815Z,22.97
2019-02-19T20:54:21.521Z,24.67
2019-02-19T20:56:50.571Z,20.67
2019-02-19T20:59:18.225Z,21.70
2019-02-19T21:01:46.262Z,11.20
2019-02-19T21:04:13.595Z,9.77
2019-02-19T21:06:41.438Z,13.23
2019-02-19T21:09:09.202Z,9.90
2019-02-19T21:11:38.436Z,10.37
2019-02-19T21:14:06.025Z,10.87
2019-02-19T21:16:33.822Z,15.60
2019-02-19T21:19:01.562Z,10.37
2019-02-19T21:21:30.705Z,9.17
2019-02-19T21:23:58.703Z,9.03
2019-02-19T21:26:27.393Z,12.50
2019-02-19T21:28:55.148Z,14.33
2019-02-19T21:31:22.961Z,14.13
2019-02-19T21:33:50.929Z,12.37
2019-02-19T21:36:18.279Z,13.50
2019-02-19T21:38:45.738Z,8.50
2019-02-19T21:41:13.347Z,12.97
2019-02-19T21:43:40.800Z,16.73
2019-02-19T21:46:08.298Z,13.33
2019-02-19T21:48:35.972Z,23.10
2019-02-19T21:51:03.475Z,18.07
2019-02-19T21:53:31.071Z,15.47
2019-02-19T21:55:58.737Z,15.13
2019-02-19T21:58:26.215Z,10.47
2019-02-19T22:00:53.887Z,9.47
2019-02-19T22:03:23.474Z,9.23
2019-02-19T22:05:51.259Z,10.50
2019-02-19T22:08:19.202Z,6.80
2019-02-19T22:10:46.996Z,7.77
2019-02-19T22:13:14.622Z,7.63
2019-02-19T22:15:42.626Z,7.00
2019-02-19T22:18:10.232Z,9.20
2019-02-19T22:20:59.735Z,8.80
2019-02-19T22:23:27.287Z,12.20
2019-02-19T22:25:55.087Z,10.20
2019-02-19T22:28:23.060Z,14.97
2019-02-19T22:30:50.623Z,11.00
2019-02-19T22:33:18.249Z,24.90
2019-02-19T22:35:45.605Z,13.00
2019-02-19T22:38:12.971Z,15.20
2019-02-19T22:40:40.362Z,11.73
2019-02-19T22:43:08.055Z,12.60
2019-02-19T22:45:35.934Z,10.60
2019-02-19T22:48:05.035Z,9.13
2019-02-19T22:50:32.798Z,10.00
2019-02-19T22:53:00.873Z,11.27
2019-02-19T22:55:53.362Z,9.73
2019-02-19T22:58:20.814Z,11.13
2019-02-19T23:01:01.964Z,10.00
2019-02-19T23:03:31.217Z,9.30
2019-02-19T23:05:59.101Z,7.60
2019-02-19T23:08:27.220Z,5.67
2019-02-19T23:11:05.398Z,6.90
2019-02-19T23:13:33.266Z,7.57
2019-02-19T23:16:01.457Z,8.10
2019-02-19T23:18:28.835Z,5.53
2019-02-19T23:20:56.745Z,5.90
2019-02-19T23:23:24.277Z,10.33
2019-02-19T23:25:51.927Z,7.37
2019-02-19T23:28:19.410Z,6.37
2019-02-19T23:30:46.898Z,5.60
2019-02-19T23:33:14.388Z,6.13
2019-02-19T23:35:55.886Z,10.57
2019-02-19T23:38:23.617Z,10.53
2019-02-19T23:40:51.104Z,6.37
2019-02-19T23:43:38.504Z,16.07
2019-02-19T23:46:06.251Z,19.33
2019-02-19T23:48:34.116Z,23.83
2019-02-19T23:51:01.451Z,28.20
2019-02-19T23:53:29.133Z,21.90
2019-02-19T23:55:56.580Z,21.20
2019-02-19T23:58:24.066Z,18.43
